# Tabular Observed and Forecast Hydrograph Information
#
# Location: San Joaquin River - Newman (NWMC1)
#
# File Generation Time: 05/06/2026 at 07:37 AM PDT
# Data Interval: 1 Hour
#
# Most Recent Date & Time of Maximum Observed: 05/01/2026 at 08:00 AM PDT
# Maximum Observed Stage: 50.54 Feet
# Maximum Observed Flow: 870 cfs
#
# Earliest Date & Time of Maximum Forecast: 05/10/2026 at 08:00 PM PDT
# Maximum Forecast Stage: 50.33 Feet
# Maximum Forecast Flow: 803 cfs
#
# OBSERVED
#
# Date & Time (Local) Stage (Feet) Flow (cfs) Trend Observed Status
# ---------------------------------------------------------------------------------
05/01/2026 07 AM PDT 50.54 870 Normal
05/01/2026 08 AM PDT 50.54 870 0 Normal
05/01/2026 09 AM PDT 50.53 867 - Normal
05/01/2026 10 AM PDT 50.53 867 0 Normal
05/01/2026 11 AM PDT 50.52 864 - Normal
05/01/2026 12 PM PDT 50.51 860 - Normal
05/01/2026 01 PM PDT 50.51 860 0 Normal
05/01/2026 02 PM PDT 50.49 854 - Normal
05/01/2026 03 PM PDT 50.49 854 0 Normal
05/01/2026 04 PM PDT 50.48 851 - Normal
05/01/2026 05 PM PDT 50.48 851 0 Normal
05/01/2026 06 PM PDT 50.47 847 - Normal
05/01/2026 07 PM PDT 50.47 847 0 Normal
05/01/2026 08 PM PDT 50.45 841 - Normal
05/01/2026 09 PM PDT 50.44 838 - Normal
05/01/2026 10 PM PDT 50.44 838 0 Normal
05/01/2026 11 PM PDT 50.43 835 - Normal
05/02/2026 12 AM PDT 50.42 831 - Normal
05/02/2026 01 AM PDT 50.41 828 - Normal
05/02/2026 02 AM PDT 50.41 828 0 Normal
05/02/2026 03 AM PDT 50.40 825 - Normal
05/02/2026 04 AM PDT 50.40 825 0 Normal
05/02/2026 05 AM PDT 50.39 822 - Normal
05/02/2026 06 AM PDT 50.39 822 0 Normal
05/02/2026 07 AM PDT 50.38 819 - Normal
05/02/2026 08 AM PDT 50.38 819 0 Normal
05/02/2026 09 AM PDT 50.38 819 0 Normal
05/02/2026 10 AM PDT 50.38 819 0 Normal
05/02/2026 11 AM PDT 50.38 819 0 Normal
05/02/2026 12 PM PDT 50.37 815 - Normal
05/02/2026 01 PM PDT 50.36 812 - Normal
05/02/2026 02 PM PDT 50.36 812 0 Normal
05/02/2026 03 PM PDT 50.36 812 0 Normal
05/02/2026 04 PM PDT 50.36 812 0 Normal
05/02/2026 05 PM PDT 50.36 812 0 Normal
05/02/2026 06 PM PDT 50.36 812 0 Normal
05/02/2026 07 PM PDT 50.36 812 0 Normal
05/02/2026 08 PM PDT 50.35 809 - Normal
05/02/2026 09 PM PDT 50.35 809 0 Normal
05/02/2026 10 PM PDT 50.35 809 0 Normal
05/02/2026 11 PM PDT 50.35 809 0 Normal
05/03/2026 12 AM PDT 50.35 809 0 Normal
05/03/2026 01 AM PDT 50.34 806 - Normal
05/03/2026 02 AM PDT 50.35 809 + Normal
05/03/2026 03 AM PDT 50.35 809 0 Normal
05/03/2026 04 AM PDT 50.36 812 + Normal
05/03/2026 05 AM PDT 50.36 812 0 Normal
05/03/2026 06 AM PDT 50.36 812 0 Normal
05/03/2026 07 AM PDT 50.37 815 + Normal
05/03/2026 08 AM PDT 50.37 815 0 Normal
05/03/2026 09 AM PDT 50.37 815 0 Normal
05/03/2026 10 AM PDT 50.38 819 + Normal
05/03/2026 11 AM PDT 50.39 822 + Normal
05/03/2026 12 PM PDT 50.38 819 - Normal
05/03/2026 01 PM PDT 50.38 819 0 Normal
05/03/2026 02 PM PDT 50.39 822 + Normal
05/03/2026 03 PM PDT 50.38 819 - Normal
05/03/2026 04 PM PDT 50.39 822 + Normal
05/03/2026 05 PM PDT 50.39 822 0 Normal
05/03/2026 06 PM PDT 50.39 822 0 Normal
05/03/2026 07 PM PDT 50.39 822 0 Normal
05/03/2026 08 PM PDT 50.38 819 - Normal
05/03/2026 09 PM PDT 50.38 819 0 Normal
05/03/2026 10 PM PDT 50.37 815 - Normal
05/03/2026 11 PM PDT 50.36 812 - Normal
05/04/2026 12 AM PDT 50.36 812 0 Normal
05/04/2026 01 AM PDT 50.36 812 0 Normal
05/04/2026 02 AM PDT 50.36 812 0 Normal
05/04/2026 03 AM PDT 50.34 806 - Normal
05/04/2026 04 AM PDT 50.34 806 0 Normal
05/04/2026 05 AM PDT 50.34 806 0 Normal
05/04/2026 06 AM PDT 50.35 809 + Normal
05/04/2026 07 AM PDT 50.35 809 0 Normal
05/04/2026 08 AM PDT 50.35 809 0 Normal
05/04/2026 09 AM PDT 50.36 812 + Normal
05/04/2026 10 AM PDT 50.36 812 0 Normal
05/04/2026 11 AM PDT 50.36 812 0 Normal
05/04/2026 12 PM PDT 50.36 812 0 Normal
05/04/2026 01 PM PDT 50.36 812 0 Normal
05/04/2026 02 PM PDT 50.36 812 0 Normal
05/04/2026 03 PM PDT 50.37 815 + Normal
05/04/2026 04 PM PDT 50.37 815 0 Normal
05/04/2026 05 PM PDT 50.37 815 0 Normal
05/04/2026 06 PM PDT 50.36 812 - Normal
05/04/2026 07 PM PDT 50.36 812 0 Normal
05/04/2026 08 PM PDT 50.35 809 - Normal
05/04/2026 09 PM PDT 50.34 806 - Normal
05/04/2026 10 PM PDT 50.33 803 - Normal
05/04/2026 11 PM PDT 50.32 800 - Normal
05/05/2026 12 AM PDT 50.30 793 - Normal
05/05/2026 01 AM PDT 50.29 790 - Normal
05/05/2026 02 AM PDT 50.27 784 - Normal
05/05/2026 03 AM PDT 50.27 784 0 Normal
05/05/2026 04 AM PDT 50.26 781 - Normal
05/05/2026 05 AM PDT 50.25 778 - Normal
05/05/2026 06 AM PDT 50.25 778 0 Normal
05/05/2026 07 AM PDT 50.24 775 - Normal
05/05/2026 08 AM PDT 50.24 775 0 Normal
05/05/2026 09 AM PDT 50.23 771 - Normal
05/05/2026 10 AM PDT 50.23 771 0 Normal
05/05/2026 11 AM PDT 50.22 768 - Normal
05/05/2026 12 PM PDT 50.22 768 0 Normal
05/05/2026 01 PM PDT 50.22 768 0 Normal
05/05/2026 02 PM PDT 50.22 768 0 Normal
05/05/2026 03 PM PDT 50.22 768 0 Normal
05/05/2026 04 PM PDT 50.22 768 0 Normal
05/05/2026 05 PM PDT 50.21 765 - Normal
05/05/2026 06 PM PDT 50.22 768 + Normal
05/05/2026 07 PM PDT 50.21 765 - Normal
05/05/2026 08 PM PDT 50.21 765 0 Normal
05/05/2026 09 PM PDT 50.20 762 - Normal
05/05/2026 10 PM PDT 50.20 762 0 Normal
05/05/2026 11 PM PDT 50.20 762 0 Normal
05/06/2026 12 AM PDT 50.19 759 - Normal
05/06/2026 01 AM PDT 50.18 756 - Normal
05/06/2026 02 AM PDT 50.18 756 0 Normal
05/06/2026 03 AM PDT 50.17 753 - Normal
05/06/2026 04 AM PDT 50.16 750 - Normal
05/06/2026 05 AM PDT 50.16 750 0 Normal
05/06/2026 06 AM PDT 50.16 750 0 Normal
05/06/2026 07 AM PDT 50.16 750 0 Normal
#
# FORECAST
#
# Date & Time (Local) Stage (Feet) Flow (cfs) Trend Forecast Status
# ---------------------------------------------------------------------------------
05/06/2026 08 AM PDT 50.16 750 Normal
05/06/2026 09 AM PDT 50.15 747 - Normal
05/06/2026 10 AM PDT 50.15 747 0 Normal
05/06/2026 11 AM PDT 50.15 747 0 Normal
05/06/2026 12 PM PDT 50.15 747 0 Normal
05/06/2026 01 PM PDT 50.15 747 0 Normal
05/06/2026 02 PM PDT 50.15 747 0 Normal
05/06/2026 03 PM PDT 50.15 747 0 Normal
05/06/2026 04 PM PDT 50.15 747 0 Normal
05/06/2026 05 PM PDT 50.15 747 0 Normal
05/06/2026 06 PM PDT 50.15 747 0 Normal
05/06/2026 07 PM PDT 50.15 747 0 Normal
05/06/2026 08 PM PDT 50.15 747 0 Normal
05/06/2026 09 PM PDT 50.15 747 0 Normal
05/06/2026 10 PM PDT 50.15 747 0 Normal
05/06/2026 11 PM PDT 50.15 747 0 Normal
05/07/2026 12 AM PDT 50.15 747 0 Normal
05/07/2026 01 AM PDT 50.15 747 0 Normal
05/07/2026 02 AM PDT 50.15 747 0 Normal
05/07/2026 03 AM PDT 50.15 747 0 Normal
05/07/2026 04 AM PDT 50.15 747 0 Normal
05/07/2026 05 AM PDT 50.15 747 0 Normal
05/07/2026 06 AM PDT 50.15 747 0 Normal
05/07/2026 07 AM PDT 50.15 747 0 Normal
05/07/2026 08 AM PDT 50.15 747 0 Normal
05/07/2026 09 AM PDT 50.15 747 0 Normal
05/07/2026 10 AM PDT 50.15 747 0 Normal
05/07/2026 11 AM PDT 50.16 750 + Normal
05/07/2026 12 PM PDT 50.16 750 0 Normal
05/07/2026 01 PM PDT 50.16 750 0 Normal
05/07/2026 02 PM PDT 50.16 750 0 Normal
05/07/2026 03 PM PDT 50.16 750 0 Normal
05/07/2026 04 PM PDT 50.16 750 0 Normal
05/07/2026 05 PM PDT 50.17 753 + Normal
05/07/2026 06 PM PDT 50.17 753 0 Normal
05/07/2026 07 PM PDT 50.17 753 0 Normal
05/07/2026 08 PM PDT 50.17 753 0 Normal
05/07/2026 09 PM PDT 50.18 756 + Normal
05/07/2026 10 PM PDT 50.18 756 0 Normal
05/07/2026 11 PM PDT 50.18 756 0 Normal
05/08/2026 12 AM PDT 50.19 759 + Normal
05/08/2026 01 AM PDT 50.19 759 0 Normal
05/08/2026 02 AM PDT 50.19 759 0 Normal
05/08/2026 03 AM PDT 50.19 759 0 Normal
05/08/2026 04 AM PDT 50.20 762 + Normal
05/08/2026 05 AM PDT 50.20 762 0 Normal
05/08/2026 06 AM PDT 50.20 762 0 Normal
05/08/2026 07 AM PDT 50.20 762 0 Normal
05/08/2026 08 AM PDT 50.21 765 + Normal
05/08/2026 09 AM PDT 50.21 765 0 Normal
05/08/2026 10 AM PDT 50.21 765 0 Normal
05/08/2026 11 AM PDT 50.22 768 + Normal
05/08/2026 12 PM PDT 50.22 768 0 Normal
05/08/2026 01 PM PDT 50.22 768 0 Normal
05/08/2026 02 PM PDT 50.23 771 + Normal
05/08/2026 03 PM PDT 50.23 771 0 Normal
05/08/2026 04 PM PDT 50.23 771 0 Normal
05/08/2026 05 PM PDT 50.23 771 0 Normal
05/08/2026 06 PM PDT 50.24 775 + Normal
05/08/2026 07 PM PDT 50.24 775 0 Normal
05/08/2026 08 PM PDT 50.24 775 0 Normal
05/08/2026 09 PM PDT 50.24 775 0 Normal
05/08/2026 10 PM PDT 50.25 778 + Normal
05/08/2026 11 PM PDT 50.25 778 0 Normal
05/09/2026 12 AM PDT 50.25 778 0 Normal
05/09/2026 01 AM PDT 50.26 781 + Normal
05/09/2026 02 AM PDT 50.26 781 0 Normal
05/09/2026 03 AM PDT 50.26 781 0 Normal
05/09/2026 04 AM PDT 50.26 781 0 Normal
05/09/2026 05 AM PDT 50.27 784 + Normal
05/09/2026 06 AM PDT 50.27 784 0 Normal
05/09/2026 07 AM PDT 50.27 784 0 Normal
05/09/2026 08 AM PDT 50.27 784 0 Normal
05/09/2026 09 AM PDT 50.28 787 + Normal
05/09/2026 10 AM PDT 50.28 787 0 Normal
05/09/2026 11 AM PDT 50.28 787 0 Normal
05/09/2026 12 PM PDT 50.28 787 0 Normal
05/09/2026 01 PM PDT 50.28 787 0 Normal
05/09/2026 02 PM PDT 50.29 790 + Normal
05/09/2026 03 PM PDT 50.29 790 0 Normal
05/09/2026 04 PM PDT 50.29 790 0 Normal
05/09/2026 05 PM PDT 50.29 790 0 Normal
05/09/2026 06 PM PDT 50.29 790 0 Normal
05/09/2026 07 PM PDT 50.30 793 + Normal
05/09/2026 08 PM PDT 50.30 793 0 Normal
05/09/2026 09 PM PDT 50.30 793 0 Normal
05/09/2026 10 PM PDT 50.30 793 0 Normal
05/09/2026 11 PM PDT 50.30 793 0 Normal
05/10/2026 12 AM PDT 50.30 793 0 Normal
05/10/2026 01 AM PDT 50.31 796 + Normal
05/10/2026 02 AM PDT 50.31 796 0 Normal
05/10/2026 03 AM PDT 50.31 796 0 Normal
05/10/2026 04 AM PDT 50.31 796 0 Normal
05/10/2026 05 AM PDT 50.31 796 0 Normal
05/10/2026 06 AM PDT 50.31 796 0 Normal
05/10/2026 07 AM PDT 50.31 796 0 Normal
05/10/2026 08 AM PDT 50.31 796 0 Normal
05/10/2026 09 AM PDT 50.32 800 + Normal
05/10/2026 10 AM PDT 50.32 800 0 Normal
05/10/2026 11 AM PDT 50.32 800 0 Normal
05/10/2026 12 PM PDT 50.32 800 0 Normal
05/10/2026 01 PM PDT 50.32 800 0 Normal
05/10/2026 02 PM PDT 50.32 800 0 Normal
05/10/2026 03 PM PDT 50.32 800 0 Normal
05/10/2026 04 PM PDT 50.32 800 0 Normal
05/10/2026 05 PM PDT 50.32 800 0 Normal
05/10/2026 06 PM PDT 50.32 800 0 Normal
05/10/2026 07 PM PDT 50.32 800 0 Normal
05/10/2026 08 PM PDT 50.33 803 + Normal
05/10/2026 09 PM PDT 50.33 803 0 Normal
05/10/2026 10 PM PDT 50.33 803 0 Normal
05/10/2026 11 PM PDT 50.33 803 0 Normal
05/11/2026 12 AM PDT 50.33 803 0 Normal
05/11/2026 01 AM PDT 50.33 803 0 Normal
05/11/2026 02 AM PDT 50.33 803 0 Normal
05/11/2026 03 AM PDT 50.33 803 0 Normal
05/11/2026 04 AM PDT 50.33 803 0 Normal
05/11/2026 05 AM PDT 50.33 803 0 Normal
#
# NOTE 1: Stages are rounded to the nearest hundredth (.01) of a foot.
# NOTE 2: Flows are rounded to the nearest (1) cfs.
# NOTE 3: Trends are determined using hourly change in unrounded stage and flow.
# NOTE 4: Maximum Values are determined using unrounded stage and flow.
|